LFMPLFCR

Guest
Details From LFMP - Rivesaltes
To LFCR - Rodez Marcillac
Flight Number -
Tags decoded
Created
Modified
Stats Distance 111 nm / 206 km
Max Altitude 0 ft / 0 m
Waypoints 5
Social Downloads 1
Likes 0
Share

Download

Looking for another format? Having issues loading an existing format? Contact us
Advertisement - Login to hide

Notes

Requested: LFMP KELAM J27 BASLI LFCR

Route

LFMP KELAM J27 BASLI LFCR

ID Type Via Altitude (ft/m) Position (lat/lon) Dist (leg/tot) Name
O LFMP APT - 0 / 0 42.74049 / 2.87059 - / 0 nm Rivesaltes
KELAM FIX - 0 / 0 43.17194 / 2.86861 25 / 25 nm
AFRIC FIX J27 (AWY-LO) 0 / 0 43.77417 / 2.86917 36 / 62 nm
BASLI FIX J27 (AWY-LO) 0 / 0 44.11472 / 2.98750 21 / 83 nm
O LFCR APT - 0 / 0 44.40789 / 2.48265 27 / 111 nm Rodez Marcillac

Altitude Profile

Advertisement - Login to hide

LFMP

Details ICAO LFMP (PGF)
Name Rivesaltes
Region France
Timezone Europe/Paris (UTC+2.0)
Stats Elevation 143 ft / 44 m (AMSL)
Location 42.740200° 2.870790°
Runways 2
Magnetic Variation 1.411° E

METAR

LFMP 051830Z AUTO 08003KT 040V110 9999 BKN094 BKN120 24/18 Q1011 NOSIG

Decode

TAF

TAF LFMP 051400Z 0515/0615 12010KT CAVOK BECMG 0523/0601 30010KT BECMG 0613/0615 15010KT

Decode

Departure Runways

ID Width Length Bearing (true/mag) Surface Threshold Overrun Markings Lighting
13 66 ft / 20 m 3,635 ft / 1,108 m 129.20° / 127.79° ASPHALT 0 ft / 0 m 528 ft / 161 m APP EDGE THRESHOLD
15 148 ft / 45 m 8,296 ft / 2,529 m 148.79° / 147.38° ASPHALT 0 ft / 0 m 230 ft / 70 m PREC-APP EDGE THRESHOLD REIL-OMNI
31 66 ft / 20 m 3,635 ft / 1,108 m 309.21° / 307.80° ASPHALT 0 ft / 0 m 0 ft / 0 m APP EDGE THRESHOLD
33 148 ft / 45 m 8,296 ft / 2,529 m 328.80° / 327.39° ASPHALT 558 ft / 170 m 230 ft / 70 m PREC-APP EDGE THRESHOLD ALSF-I

LFCR

Details ICAO LFCR (RDZ)
Name Rodez Marcillac
Region France
Timezone Europe/Paris (UTC+2.0)
Stats Elevation 1,910 ft / 582 m (AMSL)
Location 44.408900° 2.480450°
Runways 1
Magnetic Variation 1.283° E

METAR

LFCR 051830Z AUTO 23003KT 9999 FEW040 19/14 Q1014 NOSIG

Decode

TAF

TAF LFCR 051700Z 0518/0618 25005KT 9999 BKN030 BECMG 0600/0602 BKN014 BECMG 0607/0609 BKN020

Decode

Destination Runways

ID Width Length Bearing (true/mag) Surface Threshold Overrun Markings Lighting
13 148 ft / 45 m 6,210 ft / 1,893 m 129.05° / 127.77° ASPHALT 0 ft / 0 m 36 ft / 11 m PREC-APP EDGE THRESHOLD REIL-OMNI
31 148 ft / 45 m 6,210 ft / 1,893 m 309.06° / 307.78° ASPHALT 161 ft / 49 m 0 ft / 0 m PREC-APP EDGE THRESHOLD MALS REIL-OMNI

Approach Navaids

Runway Type Ident Frequency Range Bearing (true/mag) Slope Elevation
31 DME RDE 110.75 MHz 18 nm / 33 km - - 1,939 ft / 591 m (AMSL)
31 LOC-ILS RDE 110.75 MHz 18 nm / 33 km 309.01° / 307.72 ° - 1,914 ft / 583 m (AMSL)
31 GS RDE 110.75 MHz 10 nm / 19 km 309.15° / 307.87 ° 3.00° 1,914 ft / 583 m (AMSL)

Popular Alternatives